createdAt,value
2022-11-26T00:01:23.206Z,6.43
2022-11-26T00:03:52.509Z,7.33
2022-11-26T00:06:35.890Z,7.90
2022-11-26T00:09:06.459Z,9.57
2022-11-26T00:11:34.462Z,7.93
2022-11-26T00:14:01.979Z,6.20
2022-11-26T00:16:30.528Z,9.37
2022-11-26T00:18:58.354Z,6.77
2022-11-26T00:21:29.420Z,8.00
2022-11-26T00:23:57.330Z,7.07
2022-11-26T00:26:25.657Z,7.20
2022-11-26T00:28:57.787Z,7.70
2022-11-26T00:31:25.389Z,8.40
2022-11-26T00:33:53.287Z,8.30
2022-11-26T00:36:30.052Z,7.13
2022-11-26T00:39:12.072Z,6.68
2022-11-26T00:41:40.067Z,6.37
2022-11-26T00:44:25.073Z,6.57
2022-11-26T00:46:53.510Z,6.30
2022-11-26T00:49:21.155Z,8.10
2022-11-26T00:51:49.340Z,7.63
2022-11-26T00:54:18.747Z,7.63
2022-11-26T00:56:48.008Z,6.97
2022-11-26T00:59:19.842Z,9.50
2022-11-26T01:01:47.562Z,6.00
2022-11-26T01:04:15.466Z,6.93
2022-11-26T01:06:45.066Z,8.80
2022-11-26T01:09:21.073Z,7.57
2022-11-26T01:11:53.665Z,7.47
2022-11-26T01:14:24.910Z,7.43
2022-11-26T01:16:56.933Z,8.33
2022-11-26T01:19:24.758Z,7.80
2022-11-26T01:21:52.190Z,8.53
2022-11-26T01:24:19.656Z,6.07
2022-11-26T01:26:47.124Z,7.33
2022-11-26T01:29:19.140Z,7.50
2022-11-26T01:31:47.026Z,7.43
2022-11-26T01:34:14.799Z,6.53
2022-11-26T01:36:42.761Z,8.03
2022-11-26T01:39:10.122Z,6.27
2022-11-26T01:41:44.705Z,10.37
2022-11-26T01:44:28.106Z,6.13
2022-11-26T01:46:56.101Z,8.47
2022-11-26T01:49:32.497Z,5.03
2022-11-26T01:52:21.644Z,5.50
2022-11-26T01:54:50.326Z,4.33
2022-11-26T01:57:23.296Z,6.63
2022-11-26T01:59:54.332Z,6.30
2022-11-26T02:02:25.197Z,5.67
2022-11-26T02:05:00.992Z,4.33
2022-11-26T02:07:28.527Z,4.83
2022-11-26T02:09:56.101Z,7.33
2022-11-26T02:12:23.640Z,4.57
2022-11-26T02:14:51.239Z,6.43
2022-11-26T02:17:27.557Z,4.43
2022-11-26T02:20:16.487Z,5.83
2022-11-26T02:22:49.968Z,5.80
2022-11-26T02:25:23.655Z,4.40
2022-11-26T02:28:03.228Z,4.67
2022-11-26T02:30:36.515Z,4.17
2022-11-26T02:33:14.033Z,4.97
2022-11-26T02:35:49.766Z,5.47
2022-11-26T02:38:22.895Z,4.37
2022-11-26T02:40:51.873Z,5.00
2022-11-26T02:43:20.618Z,5.47
2022-11-26T02:45:55.966Z,4.80
2022-11-26T02:48:29.170Z,3.57
2022-11-26T02:51:00.569Z,4.13
2022-11-26T02:53:32.701Z,5.43
2022-11-26T02:56:15.679Z,3.90
2022-11-26T02:58:44.294Z,4.53
2022-11-26T03:01:29.570Z,3.70
2022-11-26T03:04:02.111Z,5.03
2022-11-26T03:06:33.159Z,5.77
2022-11-26T03:09:01.101Z,3.70
2022-11-26T03:11:31.202Z,4.50
2022-11-26T03:13:58.832Z,6.60
2022-11-26T03:16:26.467Z,4.13
2022-11-26T03:18:53.954Z,5.13
2022-11-26T03:21:21.726Z,6.93
2022-11-26T03:23:49.424Z,6.50
2022-11-26T03:26:17.061Z,5.80
2022-11-26T03:28:44.502Z,5.97
2022-11-26T03:31:12.242Z,4.87
2022-11-26T03:33:39.761Z,6.53
2022-11-26T03:36:07.618Z,4.50
2022-11-26T03:38:35.292Z,6.10
2022-11-26T03:41:04.183Z,4.87
2022-11-26T03:43:31.736Z,4.70
2022-11-26T03:45:59.327Z,5.63
2022-11-26T03:48:26.840Z,6.23
2022-11-26T03:50:54.312Z,5.00
2022-11-26T03:53:21.855Z,5.20
2022-11-26T03:55:49.373Z,6.20
2022-11-26T03:58:16.913Z,11.63
2022-11-26T04:00:44.498Z,9.50
2022-11-26T04:03:12.036Z,10.47
2022-11-26T04:05:39.655Z,8.93
2022-11-26T04:08:07.169Z,10.33
2022-11-26T04:10:34.721Z,9.53
2022-11-26T04:13:02.358Z,12.17
2022-11-26T04:15:30.141Z,11.07
2022-11-26T04:17:57.669Z,11.13
2022-11-26T04:20:25.110Z,12.60
2022-11-26T04:22:52.616Z,14.00
2022-11-26T04:25:20.130Z,16.20
2022-11-26T04:27:47.673Z,18.87
2022-11-26T04:30:16.071Z,17.80
2022-11-26T04:32:43.704Z,13.47
2022-11-26T04:35:11.160Z,15.27
2022-11-26T04:37:38.764Z,11.43
2022-11-26T04:40:06.947Z,9.97
2022-11-26T04:42:34.876Z,7.97
2022-11-26T04:45:02.392Z,8.20
2022-11-26T04:47:31.217Z,11.43
2022-11-26T04:49:58.731Z,12.90
2022-11-26T04:52:26.165Z,9.90
2022-11-26T04:54:53.678Z,9.27
2022-11-26T04:57:21.207Z,9.73
2022-11-26T04:59:48.730Z,6.73
2022-11-26T05:02:16.386Z,4.77
2022-11-26T05:04:43.919Z,3.90
2022-11-26T05:07:11.539Z,4.47
2022-11-26T05:09:39.026Z,4.93
2022-11-26T05:12:06.657Z,3.37
2022-11-26T05:14:34.241Z,4.00
2022-11-26T05:17:01.841Z,3.70
2022-11-26T05:19:29.456Z,5.27
2022-11-26T05:21:56.924Z,4.37
2022-11-26T05:24:24.703Z,4.83
2022-11-26T05:26:56.599Z,4.27
2022-11-26T05:29:25.952Z,5.93
2022-11-26T05:31:53.609Z,4.70
2022-11-26T05:34:21.243Z,6.57
2022-11-26T05:36:48.772Z,4.50
2022-11-26T05:39:16.837Z,4.03
2022-11-26T05:41:44.479Z,6.33
2022-11-26T05:44:11.911Z,5.97
2022-11-26T05:46:41.047Z,4.27
2022-11-26T05:49:08.842Z,7.10
2022-11-26T05:51:36.306Z,5.17
2022-11-26T05:54:03.953Z,6.27
2022-11-26T05:56:31.550Z,4.87
2022-11-26T05:58:59.122Z,6.03
2022-11-26T06:01:26.707Z,5.33
2022-11-26T06:03:54.204Z,5.53
2022-11-26T06:06:21.849Z,5.23
2022-11-26T06:08:49.590Z,5.07
2022-11-26T06:11:17.325Z,5.20
2022-11-26T06:13:44.942Z,5.03
2022-11-26T06:16:12.444Z,5.40
2022-11-26T06:18:40.443Z,6.13
2022-11-26T06:21:08.512Z,5.83
2022-11-26T06:23:36.152Z,4.43
2022-11-26T06:26:12.554Z,5.10
2022-11-26T06:28:40.333Z,6.23
2022-11-26T06:31:10.400Z,5.70
2022-11-26T06:33:38.188Z,5.77
2022-11-26T06:36:06.464Z,6.80
2022-11-26T06:38:33.986Z,6.47
2022-11-26T06:41:03.990Z,6.33
2022-11-26T06:43:32.110Z,5.83
2022-11-26T06:46:08.505Z,5.87
2022-11-26T06:48:37.908Z,5.13
2022-11-26T06:51:15.014Z,4.73
2022-11-26T06:53:42.740Z,5.93
2022-11-26T06:56:17.999Z,5.57
2022-11-26T06:58:52.530Z,6.20
2022-11-26T07:01:23.975Z,6.93
2022-11-26T07:03:52.522Z,4.47
2022-11-26T07:06:22.164Z,5.87
2022-11-26T07:08:54.138Z,5.83
2022-11-26T07:11:23.458Z,5.50
2022-11-26T07:13:51.536Z,5.33
2022-11-26T07:16:19.216Z,5.40
2022-11-26T07:18:53.490Z,4.57
2022-11-26T07:21:24.496Z,4.53
2022-11-26T07:23:52.421Z,5.23
2022-11-26T07:26:21.711Z,5.83
2022-11-26T07:28:50.121Z,6.80
2022-11-26T07:31:20.766Z,6.73
2022-11-26T07:33:49.088Z,4.83
2022-11-26T07:36:20.545Z,6.83
2022-11-26T07:38:48.877Z,7.30
2022-11-26T07:41:19.673Z,5.20
2022-11-26T07:43:47.496Z,4.10
2022-11-26T07:46:18.745Z,6.13
2022-11-26T07:48:46.495Z,5.90
2022-11-26T07:51:25.558Z,7.20
2022-11-26T07:53:53.564Z,5.20
2022-11-26T07:56:21.237Z,6.53
2022-11-26T07:58:49.152Z,4.90
2022-11-26T08:01:19.449Z,8.27
2022-11-26T08:03:48.999Z,7.03
2022-11-26T08:06:19.818Z,6.20
2022-11-26T08:08:47.811Z,6.10
2022-11-26T08:11:24.463Z,5.27
2022-11-26T08:14:00.529Z,7.25
2022-11-26T08:16:29.180Z,7.70
2022-11-26T08:18:58.701Z,4.70
2022-11-26T08:21:26.795Z,4.57
2022-11-26T08:23:54.533Z,5.00
2022-11-26T08:26:29.089Z,4.83
2022-11-26T08:29:01.122Z,4.13
2022-11-26T08:31:33.252Z,6.83
2022-11-26T08:34:04.055Z,6.33
2022-11-26T08:36:32.131Z,6.37
2022-11-26T08:39:00.840Z,7.00
2022-11-26T08:41:28.695Z,3.60
2022-11-26T08:44:06.742Z,4.77
2022-11-26T08:46:41.130Z,6.27
2022-11-26T08:49:12.430Z,5.97
2022-11-26T08:51:39.916Z,6.60
2022-11-26T08:54:08.050Z,5.63
2022-11-26T08:56:36.166Z,6.03
2022-11-26T08:59:04.166Z,8.40
2022-11-26T09:01:33.883Z,6.33
2022-11-26T09:04:03.809Z,5.60
2022-11-26T09:06:33.761Z,6.97
2022-11-26T09:09:13.569Z,7.10
2022-11-26T09:11:56.475Z,7.53
2022-11-26T09:14:26.274Z,5.53
2022-11-26T09:16:56.304Z,6.87
2022-11-26T09:19:25.026Z,5.80
2022-11-26T09:21:52.770Z,6.63
2022-11-26T09:24:21.631Z,6.40
2022-11-26T09:26:49.916Z,7.23
2022-11-26T09:29:20.111Z,8.43
2022-11-26T09:32:21.376Z,7.90
2022-11-26T09:34:37.912Z,8.03
2022-11-26T09:37:05.766Z,8.77
2022-11-26T09:39:33.339Z,7.73
2022-11-26T09:42:08.415Z,7.27
2022-11-26T09:44:54.577Z,8.43
2022-11-26T09:47:41.828Z,10.73
2022-11-26T09:50:15.356Z,11.52
2022-11-26T09:52:55.122Z,13.23
2022-11-26T09:55:33.058Z,9.90
2022-11-26T09:58:15.760Z,9.77
2022-11-26T10:00:49.633Z,9.47
2022-11-26T10:03:23.581Z,8.83
2022-11-26T10:06:29.764Z,10.00
2022-11-26T10:09:03.262Z,9.67
2022-11-26T10:11:49.346Z,10.80
2022-11-26T10:14:46.700Z,7.27
2022-11-26T10:17:51.032Z,11.03
2022-11-26T10:20:53.672Z,9.33
2022-11-26T10:23:45.736Z,9.57
2022-11-26T10:26:40.283Z,10.13
2022-11-26T10:29:26.079Z,8.87
2022-11-26T10:32:13.853Z,13.07
2022-11-26T10:34:50.056Z,8.25
2022-11-26T10:37:19.398Z,9.17
2022-11-26T10:39:46.948Z,8.67
2022-11-26T10:42:19.410Z,7.80
2022-11-26T10:44:49.075Z,8.87
2022-11-26T10:47:29.985Z,8.20
2022-11-26T10:50:19.124Z,11.83
2022-11-26T10:52:54.041Z,7.60
2022-11-26T10:55:30.283Z,7.87
2022-11-26T10:58:07.805Z,8.97
2022-11-26T11:03:17.866Z,9.00
2022-11-26T11:05:45.897Z,8.43
2022-11-26T11:08:33.807Z,9.93
2022-11-26T11:11:03.613Z,10.45
2022-11-26T11:13:45.104Z,8.90
2022-11-26T11:16:14.471Z,9.90
2022-11-26T11:18:57.986Z,8.63
2022-11-26T11:21:31.995Z,11.60
2022-11-26T11:24:09.372Z,11.00
2022-11-26T11:29:26.231Z,9.80
2022-11-26T11:31:54.271Z,10.37
2022-11-26T11:34:27.684Z,13.37
2022-11-26T11:37:21.717Z,9.07
2022-11-26T11:40:17.314Z,8.77
2022-11-26T11:42:51.854Z,8.97
2022-11-26T11:45:29.526Z,8.53
2022-11-26T11:48:01.722Z,11.67
2022-11-26T11:50:43.497Z,8.93
2022-11-26T11:53:20.206Z,9.70
2022-11-26T11:56:11.781Z,8.05
2022-11-26T11:59:03.215Z,10.90
2022-11-26T12:02:15.587Z,8.47
2022-11-26T12:05:34.016Z,9.10
2022-11-26T12:08:33.525Z,9.23
2022-11-26T12:11:19.489Z,10.40
2022-11-26T12:13:54.906Z,8.50
2022-11-26T12:16:26.311Z,9.50
2022-11-26T12:19:08.189Z,10.57
2022-11-26T12:22:01.544Z,8.77
2022-11-26T12:24:41.201Z,9.33
2022-11-26T12:27:36.628Z,9.37
2022-11-26T12:30:08.788Z,7.57
2022-11-26T12:32:49.572Z,7.60
2022-11-26T12:35:29.721Z,9.43
2022-11-26T12:38:04.923Z,9.23
2022-11-26T12:40:50.063Z,10.90
2022-11-26T12:43:26.297Z,8.23
2022-11-26T12:46:06.369Z,7.83
2022-11-26T12:48:50.499Z,8.40
2022-11-26T12:51:41.094Z,7.30
2022-11-26T12:54:33.919Z,7.20
2022-11-26T12:57:15.506Z,8.77
2022-11-26T12:59:51.967Z,9.07
2022-11-26T13:02:33.138Z,6.80
2022-11-26T13:05:01.254Z,7.20
2022-11-26T13:07:56.632Z,9.57
2022-11-26T13:10:53.580Z,9.47
2022-11-26T13:14:01.831Z,9.53
2022-11-26T13:16:35.923Z,12.20
2022-11-26T13:19:13.368Z,10.73
2022-11-26T13:21:55.359Z,9.25
2022-11-26T13:24:35.889Z,8.30
2022-11-26T13:27:09.186Z,7.87
2022-11-26T13:29:57.854Z,8.43
2022-11-26T13:32:47.413Z,9.53
2022-11-26T13:35:23.741Z,8.40
2022-11-26T13:38:15.318Z,9.57
2022-11-26T13:40:59.095Z,7.73
2022-11-26T13:44:07.105Z,7.93
2022-11-26T13:46:57.505Z,10.17
2022-11-26T13:49:39.883Z,11.10
2022-11-26T13:52:16.894Z,8.17
2022-11-26T13:54:56.302Z,11.00
2022-11-26T13:57:31.750Z,10.73
2022-11-26T14:00:00.047Z,8.83
2022-11-26T14:02:33.743Z,11.20
2022-11-26T14:05:13.114Z,15.70
2022-11-26T14:07:44.564Z,13.50
2022-11-26T14:10:37.100Z,9.33
2022-11-26T14:13:04.940Z,11.60
2022-11-26T14:15:41.616Z,10.13
2022-11-26T14:18:14.966Z,9.65
2022-11-26T14:20:57.421Z,9.50
2022-11-26T14:23:50.765Z,9.40
2022-11-26T14:26:34.554Z,13.40
2022-11-26T14:29:07.814Z,11.07
2022-11-26T14:31:38.313Z,11.13
2022-11-26T14:34:13.921Z,10.63
2022-11-26T14:36:59.844Z,11.53
2022-11-26T14:39:28.792Z,11.60
2022-11-26T14:42:05.190Z,10.73
2022-11-26T14:44:33.924Z,8.73
2022-11-26T14:47:11.009Z,11.60
2022-11-26T14:49:54.339Z,10.32
2022-11-26T14:52:23.472Z,10.53
2022-11-26T14:54:54.028Z,11.00
2022-11-26T14:57:44.514Z,10.23
2022-11-26T15:00:12.053Z,11.40
2022-11-26T15:02:42.260Z,11.27
2022-11-26T15:05:25.027Z,10.13
2022-11-26T15:08:07.796Z,10.03
2022-11-26T15:10:46.345Z,11.93
2022-11-26T15:13:37.722Z,12.20
2022-11-26T15:16:42.973Z,13.53
2022-11-26T15:19:15.543Z,12.93
2022-11-26T15:21:43.620Z,12.97
2022-11-26T15:24:11.291Z,14.57
2022-11-26T15:26:39.107Z,13.13
2022-11-26T15:29:33.601Z,9.87
2022-11-26T15:32:01.328Z,12.63
2022-11-26T15:34:32.395Z,11.60
2022-11-26T15:36:59.981Z,10.67
2022-11-26T15:39:30.418Z,13.60
2022-11-26T15:42:06.197Z,12.87
2022-11-26T15:44:40.781Z,17.53
2022-11-26T15:47:22.901Z,16.93
2022-11-26T15:49:55.944Z,14.80
2022-11-26T15:52:32.612Z,17.47
2022-11-26T15:55:12.381Z,15.77
2022-11-26T15:57:42.185Z,17.10
2022-11-26T16:00:29.691Z,17.37
2022-11-26T16:02:57.497Z,14.02
2022-11-26T16:05:32.978Z,15.40
2022-11-26T16:08:23.030Z,17.13
2022-11-26T16:11:08.976Z,17.37
2022-11-26T16:13:36.763Z,16.57
2022-11-26T16:16:04.183Z,14.63
2022-11-26T16:18:48.303Z,14.50
2022-11-26T16:21:24.681Z,14.23
2022-11-26T16:24:07.641Z,15.53
2022-11-26T16:26:57.761Z,14.43
2022-11-26T16:29:26.379Z,12.87
2022-11-26T16:31:53.994Z,12.43
2022-11-26T16:34:22.239Z,15.13
2022-11-26T16:36:49.882Z,14.77
2022-11-26T16:39:17.623Z,12.27
2022-11-26T16:41:45.177Z,12.23
2022-11-26T16:44:12.840Z,14.03
2022-11-26T16:46:41.306Z,13.20
2022-11-26T16:49:10.941Z,13.50
2022-11-26T16:51:38.524Z,13.67
2022-11-26T16:54:06.237Z,24.63
2022-11-26T16:56:38.136Z,21.43
2022-11-26T16:59:14.421Z,15.30
2022-11-26T17:01:41.984Z,13.77
2022-11-26T17:04:12.164Z,21.00
2022-11-26T17:06:41.469Z,20.63
2022-11-26T17:09:17.721Z,14.20
2022-11-26T17:11:45.825Z,21.30
2022-11-26T17:14:13.472Z,17.00
2022-11-26T17:16:41.641Z,15.37
2022-11-26T17:19:13.364Z,15.47
2022-11-26T17:21:40.907Z,15.00
2022-11-26T17:24:09.235Z,13.87
2022-11-26T17:26:36.889Z,16.07
2022-11-26T17:29:06.837Z,19.53
2022-11-26T17:31:34.605Z,16.73
2022-11-26T17:34:02.307Z,19.87
2022-11-26T17:36:36.475Z,16.60
2022-11-26T17:39:04.633Z,17.47
2022-11-26T17:41:32.315Z,16.17
2022-11-26T17:44:00.050Z,17.97
2022-11-26T17:46:27.716Z,18.03
2022-11-26T17:48:59.650Z,17.03
2022-11-26T17:51:27.743Z,16.17
2022-11-26T17:53:55.225Z,15.90
2022-11-26T17:56:24.650Z,21.97
2022-11-26T17:58:52.222Z,16.53
2022-11-26T18:01:20.529Z,19.03
2022-11-26T18:03:48.329Z,19.53
2022-11-26T18:06:19.436Z,18.87
2022-11-26T18:08:47.107Z,16.03
2022-11-26T18:11:16.272Z,16.57
2022-11-26T18:13:44.216Z,15.53
2022-11-26T18:16:11.986Z,14.10
2022-11-26T18:18:39.528Z,17.33
2022-11-26T18:21:07.140Z,16.23
2022-11-26T18:23:34.996Z,19.53
2022-11-26T18:26:03.291Z,16.27
2022-11-26T18:28:30.923Z,23.00
2022-11-26T18:30:59.536Z,16.80
2022-11-26T18:33:27.345Z,16.10
2022-11-26T18:35:54.864Z,16.77
2022-11-26T18:38:25.091Z,16.33
2022-11-26T18:41:01.192Z,13.50
2022-11-26T18:43:28.794Z,16.10
2022-11-26T18:45:56.440Z,19.73
2022-11-26T18:48:24.124Z,18.33
2022-11-26T18:50:58.950Z,16.30
2022-11-26T18:53:27.561Z,18.57
2022-11-26T18:55:56.583Z,15.07
2022-11-26T18:58:25.333Z,18.10
2022-11-26T19:00:58.788Z,14.97
2022-11-26T19:03:27.545Z,20.30
2022-11-26T19:05:56.160Z,15.03
2022-11-26T19:08:24.340Z,15.70
2022-11-26T19:10:52.051Z,16.70
2022-11-26T19:13:20.250Z,15.43
2022-11-26T19:15:48.195Z,15.10
2022-11-26T19:18:16.486Z,16.97
2022-11-26T19:20:53.091Z,15.10
2022-11-26T19:23:24.515Z,15.73
2022-11-26T19:25:52.524Z,14.10
2022-11-26T19:28:20.078Z,17.43
2022-11-26T19:31:16.826Z,15.67
2022-11-26T19:33:48.477Z,20.77
2022-11-26T19:36:17.282Z,14.37
2022-11-26T19:38:45.880Z,16.50
2022-11-26T19:41:14.105Z,16.50
2022-11-26T19:43:43.404Z,18.00
2022-11-26T19:46:14.075Z,17.57
2022-11-26T19:48:43.879Z,17.77
2022-11-26T19:51:12.822Z,19.37
2022-11-26T19:53:40.712Z,17.50
2022-11-26T19:56:26.516Z,22.57
2022-11-26T19:58:54.879Z,17.37
2022-11-26T20:01:22.641Z,14.80
2022-11-26T20:03:50.856Z,17.83
2022-11-26T20:06:24.129Z,16.23
2022-11-26T20:09:11.885Z,15.23
2022-11-26T20:12:26.404Z,16.88
2022-11-26T20:15:03.101Z,15.93
2022-11-26T20:17:30.887Z,14.90
2022-11-26T20:19:58.597Z,16.27
2022-11-26T20:22:28.108Z,14.83
2022-11-26T20:24:55.720Z,16.30
2022-11-26T20:27:23.809Z,17.37
2022-11-26T20:29:51.345Z,16.40
2022-11-26T20:32:18.868Z,17.20
2022-11-26T20:34:47.341Z,21.90
2022-11-26T20:37:14.842Z,16.17
2022-11-26T20:39:42.534Z,13.80
2022-11-26T20:42:11.926Z,15.77
2022-11-26T20:44:40.391Z,13.97
2022-11-26T20:47:08.256Z,14.83
2022-11-26T20:49:42.677Z,13.73
2022-11-26T20:52:13.169Z,14.55
2022-11-26T20:54:41.362Z,16.43
2022-11-26T20:57:08.820Z,12.73
2022-11-26T20:59:36.590Z,14.50
2022-11-26T21:02:04.635Z,14.73
2022-11-26T21:04:32.109Z,16.77
2022-11-26T21:06:59.650Z,15.87
2022-11-26T21:09:27.395Z,13.83
2022-11-26T21:11:54.928Z,16.87
2022-11-26T21:14:22.760Z,14.10
2022-11-26T21:16:50.610Z,16.27
2022-11-26T21:19:18.090Z,14.70
2022-11-26T21:21:45.718Z,13.50
2022-11-26T21:24:14.640Z,15.73
2022-11-26T21:26:42.112Z,14.07
2022-11-26T21:29:09.675Z,12.57
2022-11-26T21:31:38.401Z,16.50
2022-11-26T21:34:07.825Z,15.90
2022-11-26T21:36:36.640Z,14.17
2022-11-26T21:39:04.900Z,14.23
2022-11-26T21:41:33.839Z,16.43
2022-11-26T21:44:04.410Z,17.20
2022-11-26T21:46:37.920Z,14.43
2022-11-26T21:49:06.889Z,12.60
2022-11-26T21:51:34.457Z,13.50
2022-11-26T21:54:02.324Z,14.03
2022-11-26T21:56:31.732Z,17.13
2022-11-26T21:59:00.783Z,15.80
2022-11-26T22:01:31.715Z,13.57
2022-11-26T22:04:02.177Z,14.00
2022-11-26T22:06:30.203Z,15.13
2022-11-26T22:08:58.051Z,13.10
2022-11-26T22:11:30.438Z,13.30
2022-11-26T22:13:58.075Z,15.43
2022-11-26T22:16:27.797Z,15.10
2022-11-26T22:18:57.327Z,14.80
2022-11-26T22:21:34.063Z,15.40
2022-11-26T22:24:03.023Z,14.40
2022-11-26T22:26:32.032Z,16.57
2022-11-26T22:29:00.535Z,12.97
2022-11-26T22:31:31.080Z,13.70
2022-11-26T22:34:01.452Z,14.07
2022-11-26T22:36:29.566Z,15.13
2022-11-26T22:38:58.729Z,13.87
2022-11-26T22:41:26.562Z,14.13
2022-11-26T22:43:54.028Z,12.27
2022-11-26T22:46:24.004Z,14.40
2022-11-26T22:48:59.849Z,15.93
2022-11-26T22:51:29.610Z,13.70
2022-11-26T22:53:59.326Z,12.97
2022-11-26T22:56:27.581Z,15.97
2022-11-26T22:58:55.379Z,13.20
2022-11-26T23:01:31.495Z,13.30
2022-11-26T23:04:00.784Z,13.00
2022-11-26T23:06:30.227Z,12.97
2022-11-26T23:08:58.915Z,11.20
2022-11-26T23:11:39.248Z,12.30
2022-11-26T23:14:09.583Z,11.50
2022-11-26T23:16:39.873Z,12.97
2022-11-26T23:19:13.543Z,11.63
2022-11-26T23:21:42.878Z,12.70
2022-11-26T23:24:11.067Z,15.17
2022-11-26T23:26:40.431Z,12.97
2022-11-26T23:29:09.335Z,13.43
2022-11-26T23:31:41.944Z,11.37
2022-11-26T23:34:10.461Z,11.67
2022-11-26T23:36:38.196Z,11.93
2022-11-26T23:39:07.484Z,13.43
2022-11-26T23:41:35.036Z,11.33
2022-11-26T23:44:03.620Z,13.13
2022-11-26T23:46:32.998Z,10.63
2022-11-26T23:49:00.555Z,12.87
2022-11-26T23:51:30.715Z,11.57
2022-11-26T23:53:58.287Z,9.83
2022-11-26T23:56:28.550Z,11.07
2022-11-26T23:58:58.462Z,11.53
